sensor_id;sensor_type;location;lat;lon;timestamp;P1;durP1;ratioP1;P2;durP2;ratioP2
29196;SDS011;62796;42.654;23.316;2023-04-30T00:00:11;22.80;;;10.90;;
29196;SDS011;62796;42.654;23.316;2023-04-30T00:02:36;16.38;;;10.95;;
29196;SDS011;62796;42.654;23.316;2023-04-30T00:05:02;18.23;;;10.07;;
29196;SDS011;62796;42.654;23.316;2023-04-30T00:07:28;13.32;;;8.65;;
29196;SDS011;62796;42.654;23.316;2023-04-30T00:09:53;15.00;;;8.88;;
29196;SDS011;62796;42.654;23.316;2023-04-30T00:12:19;16.60;;;9.07;;
29196;SDS011;62796;42.654;23.316;2023-04-30T00:14:45;20.80;;;9.90;;
29196;SDS011;62796;42.654;23.316;2023-04-30T00:17:10;15.30;;;9.00;;
29196;SDS011;62796;42.654;23.316;2023-04-30T00:19:36;21.98;;;9.88;;
29196;SDS011;62796;42.654;23.316;2023-04-30T00:22:01;18.42;;;9.95;;
29196;SDS011;62796;42.654;23.316;2023-04-30T00:24:27;18.40;;;9.90;;
29196;SDS011;62796;42.654;23.316;2023-04-30T00:26:53;15.32;;;9.50;;
29196;SDS011;62796;42.654;23.316;2023-04-30T00:29:18;17.08;;;10.13;;
29196;SDS011;62796;42.654;23.316;2023-04-30T00:31:44;19.00;;;10.20;;
29196;SDS011;62796;42.654;23.316;2023-04-30T00:34:09;16.17;;;9.02;;
29196;SDS011;62796;42.654;23.316;2023-04-30T00:36:35;13.52;;;8.70;;
29196;SDS011;62796;42.654;23.316;2023-04-30T00:39:00;18.15;;;8.80;;
29196;SDS011;62796;42.654;23.316;2023-04-30T00:41:26;15.98;;;9.00;;
29196;SDS011;62796;42.654;23.316;2023-04-30T00:43:52;17.85;;;9.90;;
29196;SDS011;62796;42.654;23.316;2023-04-30T00:46:17;20.17;;;9.40;;
29196;SDS011;62796;42.654;23.316;2023-04-30T00:48:43;21.33;;;10.02;;
29196;SDS011;62796;42.654;23.316;2023-04-30T00:51:08;15.27;;;9.95;;
29196;SDS011;62796;42.654;23.316;2023-04-30T00:53:34;14.63;;;9.68;;
29196;SDS011;62796;42.654;23.316;2023-04-30T00:56:01;17.88;;;9.95;;
29196;SDS011;62796;42.654;23.316;2023-04-30T00:58:26;16.55;;;9.27;;
29196;SDS011;62796;42.654;23.316;2023-04-30T01:00:52;15.13;;;9.30;;
29196;SDS011;62796;42.654;23.316;2023-04-30T01:03:17;17.25;;;9.25;;
29196;SDS011;62796;42.654;23.316;2023-04-30T01:05:44;17.48;;;9.75;;
29196;SDS011;62796;42.654;23.316;2023-04-30T01:08:09;17.80;;;8.35;;
29196;SDS011;62796;42.654;23.316;2023-04-30T01:11:20;15.57;;;9.57;;
29196;SDS011;62796;42.654;23.316;2023-04-30T01:16:39;14.50;;;9.40;;
29196;SDS011;62796;42.654;23.316;2023-04-30T01:19:08;17.35;;;10.85;;
29196;SDS011;62796;42.654;23.316;2023-04-30T01:21:48;17.90;;;10.73;;
29196;SDS011;62796;42.654;23.316;2023-04-30T01:24:17;18.50;;;11.18;;
29196;SDS011;62796;42.654;23.316;2023-04-30T01:30:04;14.43;;;10.23;;
29196;SDS011;62796;42.654;23.316;2023-04-30T01:32:30;15.75;;;10.18;;
29196;SDS011;62796;42.654;23.316;2023-04-30T01:34:55;13.95;;;9.75;;
29196;SDS011;62796;42.654;23.316;2023-04-30T01:37:23;13.52;;;8.88;;
29196;SDS011;62796;42.654;23.316;2023-04-30T01:51:31;13.63;;;8.15;;
29196;SDS011;62796;42.654;23.316;2023-04-30T01:53:58;13.77;;;9.25;;
29196;SDS011;62796;42.654;23.316;2023-04-30T01:56:30;17.30;;;9.25;;
29196;SDS011;62796;42.654;23.316;2023-04-30T01:58:58;16.45;;;9.52;;
29196;SDS011;62796;42.654;23.316;2023-04-30T02:01:28;14.57;;;9.88;;
29196;SDS011;62796;42.654;23.316;2023-04-30T02:03:55;19.00;;;9.68;;
29196;SDS011;62796;42.654;23.316;2023-04-30T02:06:20;17.08;;;9.32;;
29196;SDS011;62796;42.654;23.316;2023-04-30T02:08:52;15.10;;;8.85;;
29196;SDS011;62796;42.654;23.316;2023-04-30T02:11:18;20.42;;;9.95;;
29196;SDS011;62796;42.654;23.316;2023-04-30T02:13:43;22.75;;;11.43;;
29196;SDS011;62796;42.654;23.316;2023-04-30T02:16:09;18.27;;;10.07;;
29196;SDS011;62796;42.654;23.316;2023-04-30T02:18:34;23.30;;;10.52;;
29196;SDS011;62796;42.654;23.316;2023-04-30T02:21:00;19.33;;;10.55;;
29196;SDS011;62796;42.654;23.316;2023-04-30T02:23:25;16.02;;;10.50;;
29196;SDS011;62796;42.654;23.316;2023-04-30T02:25:51;14.48;;;9.77;;
29196;SDS011;62796;42.654;23.316;2023-04-30T02:28:16;21.75;;;10.55;;
29196;SDS011;62796;42.654;23.316;2023-04-30T02:30:42;18.70;;;10.90;;
29196;SDS011;62796;42.654;23.316;2023-04-30T02:33:07;16.25;;;10.30;;
29196;SDS011;62796;42.654;23.316;2023-04-30T02:35:36;21.33;;;10.82;;
29196;SDS011;62796;42.654;23.316;2023-04-30T02:38:02;18.05;;;10.50;;
29196;SDS011;62796;42.654;23.316;2023-04-30T02:40:27;16.33;;;9.95;;
29196;SDS011;62796;42.654;23.316;2023-04-30T02:42:53;17.55;;;10.85;;
29196;SDS011;62796;42.654;23.316;2023-04-30T02:45:20;23.05;;;11.10;;
29196;SDS011;62796;42.654;23.316;2023-04-30T02:47:46;19.52;;;10.85;;
29196;SDS011;62796;42.654;23.316;2023-04-30T02:50:13;19.70;;;10.23;;
29196;SDS011;62796;42.654;23.316;2023-04-30T02:52:38;24.05;;;10.00;;
29196;SDS011;62796;42.654;23.316;2023-04-30T02:55:04;20.50;;;10.55;;
29196;SDS011;62796;42.654;23.316;2023-04-30T02:57:30;20.98;;;10.75;;
29196;SDS011;62796;42.654;23.316;2023-04-30T02:59:56;23.25;;;10.43;;
29196;SDS011;62796;42.654;23.316;2023-04-30T03:02:21;17.35;;;9.73;;
29196;SDS011;62796;42.654;23.316;2023-04-30T03:04:47;20.75;;;10.90;;
29196;SDS011;62796;42.654;23.316;2023-04-30T03:07:13;21.02;;;10.48;;
29196;SDS011;62796;42.654;23.316;2023-04-30T03:09:39;19.48;;;10.15;;
29196;SDS011;62796;42.654;23.316;2023-04-30T03:12:04;16.75;;;9.88;;
29196;SDS011;62796;42.654;23.316;2023-04-30T03:14:30;18.50;;;10.10;;
29196;SDS011;62796;42.654;23.316;2023-04-30T03:16:55;17.40;;;9.80;;
29196;SDS011;62796;42.654;23.316;2023-04-30T03:19:21;17.80;;;9.70;;
29196;SDS011;62796;42.654;23.316;2023-04-30T03:21:49;18.38;;;10.25;;
29196;SDS011;62796;42.654;23.316;2023-04-30T03:24:18;18.48;;;10.45;;
29196;SDS011;62796;42.654;23.316;2023-04-30T03:26:44;19.15;;;11.57;;
29196;SDS011;62796;42.654;23.316;2023-04-30T03:29:10;17.10;;;11.45;;
29196;SDS011;62796;42.654;23.316;2023-04-30T03:31:35;18.00;;;10.98;;
29196;SDS011;62796;42.654;23.316;2023-04-30T03:34:01;17.13;;;11.85;;
29196;SDS011;62796;42.654;23.316;2023-04-30T03:36:26;19.30;;;11.18;;
29196;SDS011;62796;42.654;23.316;2023-04-30T03:38:52;15.55;;;11.15;;
29196;SDS011;62796;42.654;23.316;2023-04-30T03:41:18;17.58;;;10.93;;
29196;SDS011;62796;42.654;23.316;2023-04-30T03:43:43;18.92;;;11.10;;
29196;SDS011;62796;42.654;23.316;2023-04-30T03:46:09;16.40;;;10.32;;
29196;SDS011;62796;42.654;23.316;2023-04-30T03:48:34;15.43;;;10.50;;
29196;SDS011;62796;42.654;23.316;2023-04-30T03:51:00;20.17;;;10.98;;
29196;SDS011;62796;42.654;23.316;2023-04-30T03:53:25;23.58;;;12.82;;
29196;SDS011;62796;42.654;23.316;2023-04-30T03:55:51;22.33;;;12.80;;
29196;SDS011;62796;42.654;23.316;2023-04-30T03:58:17;21.30;;;13.85;;
29196;SDS011;62796;42.654;23.316;2023-04-30T04:00:43;19.35;;;12.55;;
29196;SDS011;62796;42.654;23.316;2023-04-30T04:03:10;20.55;;;12.20;;
29196;SDS011;62796;42.654;23.316;2023-04-30T04:05:36;19.75;;;12.93;;
29196;SDS011;62796;42.654;23.316;2023-04-30T04:08:01;18.52;;;12.48;;
29196;SDS011;62796;42.654;23.316;2023-04-30T04:10:27;20.08;;;12.20;;
29196;SDS011;62796;42.654;23.316;2023-04-30T04:12:52;19.08;;;11.20;;
29196;SDS011;62796;42.654;23.316;2023-04-30T04:15:18;19.65;;;11.70;;
29196;SDS011;62796;42.654;23.316;2023-04-30T04:17:43;18.40;;;12.38;;
29196;SDS011;62796;42.654;23.316;2023-04-30T04:20:09;21.00;;;11.75;;
29196;SDS011;62796;42.654;23.316;2023-04-30T04:22:35;18.42;;;12.20;;
29196;SDS011;62796;42.654;23.316;2023-04-30T04:25:00;20.13;;;12.60;;
29196;SDS011;62796;42.654;23.316;2023-04-30T04:27:26;23.80;;;13.05;;
29196;SDS011;62796;42.654;23.316;2023-04-30T04:29:51;24.20;;;12.68;;
29196;SDS011;62796;42.654;23.316;2023-04-30T04:32:18;22.33;;;12.68;;
29196;SDS011;62796;42.654;23.316;2023-04-30T04:34:44;16.52;;;12.20;;
29196;SDS011;62796;42.654;23.316;2023-04-30T04:37:09;20.15;;;12.80;;
29196;SDS011;62796;42.654;23.316;2023-04-30T04:39:35;23.17;;;11.65;;
29196;SDS011;62796;42.654;23.316;2023-04-30T04:42:01;19.70;;;11.85;;
29196;SDS011;62796;42.654;23.316;2023-04-30T04:44:27;20.35;;;13.25;;
29196;SDS011;62796;42.654;23.316;2023-04-30T04:46:53;19.65;;;12.35;;
29196;SDS011;62796;42.654;23.316;2023-04-30T04:49:20;18.42;;;12.27;;
29196;SDS011;62796;42.654;23.316;2023-04-30T04:51:46;21.50;;;13.05;;
29196;SDS011;62796;42.654;23.316;2023-04-30T04:54:11;19.52;;;13.00;;
29196;SDS011;62796;42.654;23.316;2023-04-30T04:56:37;21.25;;;13.27;;
29196;SDS011;62796;42.654;23.316;2023-04-30T04:59:02;20.88;;;12.80;;
29196;SDS011;62796;42.654;23.316;2023-04-30T05:01:27;19.10;;;13.13;;
29196;SDS011;62796;42.654;23.316;2023-04-30T05:03:53;21.88;;;13.40;;
29196;SDS011;62796;42.654;23.316;2023-04-30T05:06:19;22.30;;;13.98;;
29196;SDS011;62796;42.654;23.316;2023-04-30T05:08:44;19.52;;;13.90;;
29196;SDS011;62796;42.654;23.316;2023-04-30T05:11:10;24.25;;;15.05;;
29196;SDS011;62796;42.654;23.316;2023-04-30T05:13:36;23.10;;;13.98;;
29196;SDS011;62796;42.654;23.316;2023-04-30T05:16:01;19.58;;;13.98;;
29196;SDS011;62796;42.654;23.316;2023-04-30T05:18:27;22.40;;;13.38;;
29196;SDS011;62796;42.654;23.316;2023-04-30T05:20:52;19.90;;;12.45;;
29196;SDS011;62796;42.654;23.316;2023-04-30T05:23:18;17.77;;;13.00;;
29196;SDS011;62796;42.654;23.316;2023-04-30T05:25:43;22.05;;;13.48;;
29196;SDS011;62796;42.654;23.316;2023-04-30T05:28:09;20.80;;;13.55;;
29196;SDS011;62796;42.654;23.316;2023-04-30T05:30:35;18.45;;;13.38;;
29196;SDS011;62796;42.654;23.316;2023-04-30T05:33:01;22.42;;;13.63;;
29196;SDS011;62796;42.654;23.316;2023-04-30T05:35:26;23.00;;;14.02;;
29196;SDS011;62796;42.654;23.316;2023-04-30T05:37:52;18.98;;;13.93;;
29196;SDS011;62796;42.654;23.316;2023-04-30T05:40:17;21.33;;;14.15;;
29196;SDS011;62796;42.654;23.316;2023-04-30T05:42:43;16.65;;;13.70;;
29196;SDS011;62796;42.654;23.316;2023-04-30T05:45:09;21.98;;;13.88;;
29196;SDS011;62796;42.654;23.316;2023-04-30T05:47:36;24.70;;;14.30;;
29196;SDS011;62796;42.654;23.316;2023-04-30T05:50:02;20.08;;;14.13;;
29196;SDS011;62796;42.654;23.316;2023-04-30T05:52:27;20.92;;;15.02;;
29196;SDS011;62796;42.654;23.316;2023-04-30T05:54:53;24.02;;;14.68;;
29196;SDS011;62796;42.654;23.316;2023-04-30T05:57:18;26.20;;;15.38;;
29196;SDS011;62796;42.654;23.316;2023-04-30T05:59:44;23.13;;;14.05;;
29196;SDS011;62796;42.654;23.316;2023-04-30T06:02:09;25.33;;;14.82;;
29196;SDS011;62796;42.654;23.316;2023-04-30T06:04:35;24.08;;;14.82;;
29196;SDS011;62796;42.654;23.316;2023-04-30T06:07:00;23.42;;;15.45;;
29196;SDS011;62796;42.654;23.316;2023-04-30T06:09:26;27.23;;;14.95;;
29196;SDS011;62796;42.654;23.316;2023-04-30T06:11:51;28.58;;;14.95;;
29196;SDS011;62796;42.654;23.316;2023-04-30T06:14:17;27.55;;;16.10;;
29196;SDS011;62796;42.654;23.316;2023-04-30T06:16:44;25.13;;;15.60;;
29196;SDS011;62796;42.654;23.316;2023-04-30T06:19:13;27.27;;;15.55;;
29196;SDS011;62796;42.654;23.316;2023-04-30T06:21:38;28.50;;;16.10;;
29196;SDS011;62796;42.654;23.316;2023-04-30T06:24:04;32.63;;;16.40;;
29196;SDS011;62796;42.654;23.316;2023-04-30T06:26:30;24.25;;;15.90;;
29196;SDS011;62796;42.654;23.316;2023-04-30T06:28:56;25.15;;;15.27;;
29196;SDS011;62796;42.654;23.316;2023-04-30T06:31:22;26.13;;;15.50;;
29196;SDS011;62796;42.654;23.316;2023-04-30T06:33:47;19.10;;;13.77;;
29196;SDS011;62796;42.654;23.316;2023-04-30T06:36:14;23.40;;;13.95;;
29196;SDS011;62796;42.654;23.316;2023-04-30T06:38:39;25.75;;;13.75;;
29196;SDS011;62796;42.654;23.316;2023-04-30T06:41:05;23.15;;;11.88;;
29196;SDS011;62796;42.654;23.316;2023-04-30T06:43:31;21.80;;;13.13;;
29196;SDS011;62796;42.654;23.316;2023-04-30T06:45:56;18.90;;;13.23;;
29196;SDS011;62796;42.654;23.316;2023-04-30T06:48:22;19.17;;;12.38;;
29196;SDS011;62796;42.654;23.316;2023-04-30T06:50:47;18.48;;;11.90;;
29196;SDS011;62796;42.654;23.316;2023-04-30T06:53:13;16.30;;;12.20;;
29196;SDS011;62796;42.654;23.316;2023-04-30T06:55:43;19.75;;;11.80;;
29196;SDS011;62796;42.654;23.316;2023-04-30T06:58:10;20.33;;;12.05;;
29196;SDS011;62796;42.654;23.316;2023-04-30T07:00:36;22.17;;;13.90;;
29196;SDS011;62796;42.654;23.316;2023-04-30T07:03:01;23.02;;;13.15;;
29196;SDS011;62796;42.654;23.316;2023-04-30T07:05:28;18.10;;;12.32;;
29196;SDS011;62796;42.654;23.316;2023-04-30T07:07:55;22.27;;;13.77;;
29196;SDS011;62796;42.654;23.316;2023-04-30T07:10:21;17.30;;;11.77;;
29196;SDS011;62796;42.654;23.316;2023-04-30T07:12:47;22.58;;;12.98;;
29196;SDS011;62796;42.654;23.316;2023-04-30T07:15:12;21.10;;;12.57;;
29196;SDS011;62796;42.654;23.316;2023-04-30T07:17:38;18.85;;;12.90;;
29196;SDS011;62796;42.654;23.316;2023-04-30T07:20:05;23.13;;;13.45;;
29196;SDS011;62796;42.654;23.316;2023-04-30T07:22:32;21.92;;;12.35;;
29196;SDS011;62796;42.654;23.316;2023-04-30T07:24:58;17.42;;;11.73;;
29196;SDS011;62796;42.654;23.316;2023-04-30T07:27:24;20.45;;;11.95;;
29196;SDS011;62796;42.654;23.316;2023-04-30T07:29:50;22.63;;;13.15;;
29196;SDS011;62796;42.654;23.316;2023-04-30T07:32:16;20.25;;;11.98;;
29196;SDS011;62796;42.654;23.316;2023-04-30T07:34:41;22.23;;;12.50;;
29196;SDS011;62796;42.654;23.316;2023-04-30T07:37:07;21.23;;;12.30;;
29196;SDS011;62796;42.654;23.316;2023-04-30T07:39:34;22.25;;;13.68;;
29196;SDS011;62796;42.654;23.316;2023-04-30T07:42:03;23.33;;;12.50;;
29196;SDS011;62796;42.654;23.316;2023-04-30T07:44:29;25.52;;;13.35;;
29196;SDS011;62796;42.654;23.316;2023-04-30T07:46:56;17.13;;;12.05;;
29196;SDS011;62796;42.654;23.316;2023-04-30T07:49:22;20.60;;;12.10;;
29196;SDS011;62796;42.654;23.316;2023-04-30T07:51:47;26.25;;;12.27;;
29196;SDS011;62796;42.654;23.316;2023-04-30T07:54:13;19.52;;;11.38;;
29196;SDS011;62796;42.654;23.316;2023-04-30T07:56:38;21.10;;;11.43;;
29196;SDS011;62796;42.654;23.316;2023-04-30T07:59:04;18.48;;;9.30;;
29196;SDS011;62796;42.654;23.316;2023-04-30T08:01:30;19.63;;;8.65;;
29196;SDS011;62796;42.654;23.316;2023-04-30T08:03:55;18.45;;;10.10;;
29196;SDS011;62796;42.654;23.316;2023-04-30T08:06:21;20.00;;;10.15;;
29196;SDS011;62796;42.654;23.316;2023-04-30T08:08:46;13.23;;;8.93;;
29196;SDS011;62796;42.654;23.316;2023-04-30T08:11:12;19.73;;;9.00;;
29196;SDS011;62796;42.654;23.316;2023-04-30T08:13:37;15.52;;;9.07;;
29196;SDS011;62796;42.654;23.316;2023-04-30T08:16:03;15.05;;;7.93;;
29196;SDS011;62796;42.654;23.316;2023-04-30T08:18:28;13.90;;;6.72;;
29196;SDS011;62796;42.654;23.316;2023-04-30T08:20:56;15.45;;;6.32;;
29196;SDS011;62796;42.654;23.316;2023-04-30T08:23:21;15.57;;;6.95;;
29196;SDS011;62796;42.654;23.316;2023-04-30T08:25:47;11.07;;;5.68;;
29196;SDS011;62796;42.654;23.316;2023-04-30T08:28:12;13.32;;;5.85;;
29196;SDS011;62796;42.654;23.316;2023-04-30T08:30:38;11.25;;;6.63;;
29196;SDS011;62796;42.654;23.316;2023-04-30T08:33:03;12.23;;;5.97;;
29196;SDS011;62796;42.654;23.316;2023-04-30T08:35:29;11.38;;;5.95;;
29196;SDS011;62796;42.654;23.316;2023-04-30T08:37:55;14.98;;;5.82;;
29196;SDS011;62796;42.654;23.316;2023-04-30T08:40:20;9.00;;;5.72;;
29196;SDS011;62796;42.654;23.316;2023-04-30T08:42:49;12.43;;;6.15;;
29196;SDS011;62796;42.654;23.316;2023-04-30T08:45:17;10.43;;;6.07;;
29196;SDS011;62796;42.654;23.316;2023-04-30T08:47:44;9.15;;;5.80;;
29196;SDS011;62796;42.654;23.316;2023-04-30T08:50:10;9.32;;;5.65;;
29196;SDS011;62796;42.654;23.316;2023-04-30T08:52:36;9.43;;;5.95;;
29196;SDS011;62796;42.654;23.316;2023-04-30T08:55:02;11.32;;;5.32;;
29196;SDS011;62796;42.654;23.316;2023-04-30T08:57:31;21.73;;;10.30;;
29196;SDS011;62796;42.654;23.316;2023-04-30T08:59:57;11.63;;;7.00;;
29196;SDS011;62796;42.654;23.316;2023-04-30T09:02:22;7.40;;;4.85;;
29196;SDS011;62796;42.654;23.316;2023-04-30T09:04:48;10.82;;;4.32;;
29196;SDS011;62796;42.654;23.316;2023-04-30T09:07:13;9.63;;;4.20;;
29196;SDS011;62796;42.654;23.316;2023-04-30T09:09:39;6.85;;;4.30;;
29196;SDS011;62796;42.654;23.316;2023-04-30T09:14:39;5.72;;;3.95;;
29196;SDS011;62796;42.654;23.316;2023-04-30T09:17:05;7.68;;;4.40;;
29196;SDS011;62796;42.654;23.316;2023-04-30T09:19:32;6.55;;;4.55;;
29196;SDS011;62796;42.654;23.316;2023-04-30T09:21:58;6.20;;;4.50;;
29196;SDS011;62796;42.654;23.316;2023-04-30T09:24:45;9.93;;;4.77;;
29196;SDS011;62796;42.654;23.316;2023-04-30T09:27:20;7.18;;;4.28;;
29196;SDS011;62796;42.654;23.316;2023-04-30T09:29:47;5.47;;;4.50;;
29196;SDS011;62796;42.654;23.316;2023-04-30T09:32:12;7.65;;;4.65;;
29196;SDS011;62796;42.654;23.316;2023-04-30T09:34:38;7.90;;;4.22;;
29196;SDS011;62796;42.654;23.316;2023-04-30T09:37:04;6.53;;;4.40;;
29196;SDS011;62796;42.654;23.316;2023-04-30T09:39:31;4.40;;;4.00;;
29196;SDS011;62796;42.654;23.316;2023-04-30T09:42:07;8.57;;;4.50;;
29196;SDS011;62796;42.654;23.316;2023-04-30T09:44:36;4.82;;;4.00;;
29196;SDS011;62796;42.654;23.316;2023-04-30T09:47:03;5.68;;;4.05;;
29196;SDS011;62796;42.654;23.316;2023-04-30T09:49:29;6.10;;;4.22;;
29196;SDS011;62796;42.654;23.316;2023-04-30T09:54:25;7.95;;;4.20;;
29196;SDS011;62796;42.654;23.316;2023-04-30T09:56:53;4.72;;;4.03;;
29196;SDS011;62796;42.654;23.316;2023-04-30T09:59:20;5.47;;;4.25;;
29196;SDS011;62796;42.654;23.316;2023-04-30T10:01:47;5.40;;;3.70;;
29196;SDS011;62796;42.654;23.316;2023-04-30T10:04:16;5.18;;;3.85;;
29196;SDS011;62796;42.654;23.316;2023-04-30T10:06:43;7.95;;;4.30;;
29196;SDS011;62796;42.654;23.316;2023-04-30T10:09:08;7.40;;;4.25;;
29196;SDS011;62796;42.654;23.316;2023-04-30T10:11:36;10.35;;;3.50;;
29196;SDS011;62796;42.654;23.316;2023-04-30T10:14:03;3.72;;;3.00;;
29196;SDS011;62796;42.654;23.316;2023-04-30T10:19:11;4.40;;;3.72;;
29196;SDS011;62796;42.654;23.316;2023-04-30T10:21:41;5.13;;;4.40;;
29196;SDS011;62796;42.654;23.316;2023-04-30T10:24:11;5.65;;;3.88;;
29196;SDS011;62796;42.654;23.316;2023-04-30T10:26:38;7.93;;;4.65;;
29196;SDS011;62796;42.654;23.316;2023-04-30T10:29:05;8.00;;;4.80;;
29196;SDS011;62796;42.654;23.316;2023-04-30T10:31:31;29.10;;;5.63;;
29196;SDS011;62796;42.654;23.316;2023-04-30T10:34:02;13.52;;;4.93;;
29196;SDS011;62796;42.654;23.316;2023-04-30T10:36:37;36.75;;;6.93;;
29196;SDS011;62796;42.654;23.316;2023-04-30T10:39:08;17.70;;;5.90;;
29196;SDS011;62796;42.654;23.316;2023-04-30T10:41:35;11.75;;;6.57;;
29196;SDS011;62796;42.654;23.316;2023-04-30T10:44:01;13.40;;;6.63;;
29196;SDS011;62796;42.654;23.316;2023-04-30T10:46:29;7.57;;;5.38;;
29196;SDS011;62796;42.654;23.316;2023-04-30T10:48:54;9.25;;;5.10;;
29196;SDS011;62796;42.654;23.316;2023-04-30T10:51:20;8.35;;;5.80;;
29196;SDS011;62796;42.654;23.316;2023-04-30T10:53:48;11.35;;;5.97;;
29196;SDS011;62796;42.654;23.316;2023-04-30T10:56:28;10.93;;;7.07;;
29196;SDS011;62796;42.654;23.316;2023-04-30T10:58:57;10.45;;;6.40;;
29196;SDS011;62796;42.654;23.316;2023-04-30T11:01:27;10.43;;;6.30;;
29196;SDS011;62796;42.654;23.316;2023-04-30T11:04:06;8.88;;;6.35;;
29196;SDS011;62796;42.654;23.316;2023-04-30T11:12:11;6.93;;;5.53;;
29196;SDS011;62796;42.654;23.316;2023-04-30T11:14:39;6.45;;;5.45;;
29196;SDS011;62796;42.654;23.316;2023-04-30T11:17:06;5.72;;;4.65;;
29196;SDS011;62796;42.654;23.316;2023-04-30T11:19:31;5.15;;;4.50;;
29196;SDS011;62796;42.654;23.316;2023-04-30T11:27:36;8.65;;;4.20;;
29196;SDS011;62796;42.654;23.316;2023-04-30T11:30:03;4.95;;;4.45;;
29196;SDS011;62796;42.654;23.316;2023-04-30T11:32:37;5.88;;;4.88;;
29196;SDS011;62796;42.654;23.316;2023-04-30T11:35:03;9.25;;;5.55;;
29196;SDS011;62796;42.654;23.316;2023-04-30T11:37:31;11.07;;;5.78;;
29196;SDS011;62796;42.654;23.316;2023-04-30T11:40:02;9.48;;;4.70;;
29196;SDS011;62796;42.654;23.316;2023-04-30T11:42:33;6.13;;;4.40;;
29196;SDS011;62796;42.654;23.316;2023-04-30T11:45:02;4.68;;;3.60;;
29196;SDS011;62796;42.654;23.316;2023-04-30T11:47:42;9.52;;;3.92;;
29196;SDS011;62796;42.654;23.316;2023-04-30T11:52:36;8.27;;;4.78;;
29196;SDS011;62796;42.654;23.316;2023-04-30T11:55:12;5.90;;;3.30;;
29196;SDS011;62796;42.654;23.316;2023-04-30T11:57:40;4.95;;;3.40;;
29196;SDS011;62796;42.654;23.316;2023-04-30T12:00:08;4.25;;;3.17;;
29196;SDS011;62796;42.654;23.316;2023-04-30T12:02:37;7.55;;;3.55;;
29196;SDS011;62796;42.654;23.316;2023-04-30T12:05:03;5.70;;;3.05;;
29196;SDS011;62796;42.654;23.316;2023-04-30T12:07:30;5.03;;;3.10;;
29196;SDS011;62796;42.654;23.316;2023-04-30T12:09:56;5.38;;;3.13;;
29196;SDS011;62796;42.654;23.316;2023-04-30T12:12:29;4.03;;;3.67;;
29196;SDS011;62796;42.654;23.316;2023-04-30T12:14:55;5.60;;;3.58;;
29196;SDS011;62796;42.654;23.316;2023-04-30T12:17:34;6.05;;;3.60;;
29196;SDS011;62796;42.654;23.316;2023-04-30T12:20:00;5.57;;;3.10;;
29196;SDS011;62796;42.654;23.316;2023-04-30T12:22:25;4.35;;;3.80;;
29196;SDS011;62796;42.654;23.316;2023-04-30T12:24:53;4.38;;;3.35;;
29196;SDS011;62796;42.654;23.316;2023-04-30T12:27:20;5.78;;;4.03;;
29196;SDS011;62796;42.654;23.316;2023-04-30T12:29:46;7.90;;;4.25;;
29196;SDS011;62796;42.654;23.316;2023-04-30T12:32:14;5.70;;;4.07;;
29196;SDS011;62796;42.654;23.316;2023-04-30T12:34:43;6.57;;;3.97;;
29196;SDS011;62796;42.654;23.316;2023-04-30T12:37:09;6.70;;;4.00;;
29196;SDS011;62796;42.654;23.316;2023-04-30T12:39:34;5.60;;;3.92;;
29196;SDS011;62796;42.654;23.316;2023-04-30T12:42:00;5.35;;;3.53;;
29196;SDS011;62796;42.654;23.316;2023-04-30T12:44:27;3.88;;;3.58;;
29196;SDS011;62796;42.654;23.316;2023-04-30T12:46:54;3.65;;;3.35;;
29196;SDS011;62796;42.654;23.316;2023-04-30T12:49:25;5.72;;;3.22;;
29196;SDS011;62796;42.654;23.316;2023-04-30T12:51:55;4.05;;;3.50;;
29196;SDS011;62796;42.654;23.316;2023-04-30T12:54:26;6.05;;;3.20;;
29196;SDS011;62796;42.654;23.316;2023-04-30T12:56:57;4.82;;;3.45;;
29196;SDS011;62796;42.654;23.316;2023-04-30T12:59:23;5.05;;;3.58;;
29196;SDS011;62796;42.654;23.316;2023-04-30T13:01:49;3.05;;;2.72;;
29196;SDS011;62796;42.654;23.316;2023-04-30T13:04:14;3.45;;;2.95;;
29196;SDS011;62796;42.654;23.316;2023-04-30T13:06:39;6.00;;;2.92;;
29196;SDS011;62796;42.654;23.316;2023-04-30T13:09:05;5.03;;;3.17;;
29196;SDS011;62796;42.654;23.316;2023-04-30T13:11:30;6.10;;;2.90;;
29196;SDS011;62796;42.654;23.316;2023-04-30T13:13:56;5.00;;;3.08;;
29196;SDS011;62796;42.654;23.316;2023-04-30T13:16:21;3.53;;;3.00;;
29196;SDS011;62796;42.654;23.316;2023-04-30T13:18:48;4.60;;;3.60;;
29196;SDS011;62796;42.654;23.316;2023-04-30T13:21:13;5.20;;;3.97;;
29196;SDS011;62796;42.654;23.316;2023-04-30T13:23:39;4.88;;;3.33;;
29196;SDS011;62796;42.654;23.316;2023-04-30T13:26:04;4.95;;;3.15;;
29196;SDS011;62796;42.654;23.316;2023-04-30T13:28:30;6.05;;;3.60;;
29196;SDS011;62796;42.654;23.316;2023-04-30T13:30:55;5.63;;;3.30;;
29196;SDS011;62796;42.654;23.316;2023-04-30T13:33:21;4.43;;;3.70;;
29196;SDS011;62796;42.654;23.316;2023-04-30T13:35:47;4.07;;;3.55;;
29196;SDS011;62796;42.654;23.316;2023-04-30T13:38:13;4.25;;;3.10;;
29196;SDS011;62796;42.654;23.316;2023-04-30T13:40:39;6.53;;;4.78;;
29196;SDS011;62796;42.654;23.316;2023-04-30T13:43:05;4.20;;;3.17;;
29196;SDS011;62796;42.654;23.316;2023-04-30T13:45:30;7.85;;;5.10;;
29196;SDS011;62796;42.654;23.316;2023-04-30T13:47:55;4.88;;;4.13;;
29196;SDS011;62796;42.654;23.316;2023-04-30T13:50:21;5.72;;;4.15;;
29196;SDS011;62796;42.654;23.316;2023-04-30T13:52:47;3.97;;;3.42;;
29196;SDS011;62796;42.654;23.316;2023-04-30T13:55:12;4.18;;;3.20;;
29196;SDS011;62796;42.654;23.316;2023-04-30T13:57:37;3.65;;;3.30;;
29196;SDS011;62796;42.654;23.316;2023-04-30T14:00:04;6.32;;;3.08;;
29196;SDS011;62796;42.654;23.316;2023-04-30T14:02:30;5.50;;;3.42;;
29196;SDS011;62796;42.654;23.316;2023-04-30T14:04:55;3.80;;;3.35;;
29196;SDS011;62796;42.654;23.316;2023-04-30T14:07:22;5.22;;;3.20;;
29196;SDS011;62796;42.654;23.316;2023-04-30T14:09:48;4.38;;;3.90;;
29196;SDS011;62796;42.654;23.316;2023-04-30T14:12:14;4.50;;;3.70;;
29196;SDS011;62796;42.654;23.316;2023-04-30T14:14:40;7.80;;;3.55;;
29196;SDS011;62796;42.654;23.316;2023-04-30T14:17:06;5.93;;;3.72;;
29196;SDS011;62796;42.654;23.316;2023-04-30T14:19:31;3.95;;;3.42;;
29196;SDS011;62796;42.654;23.316;2023-04-30T14:21:57;6.32;;;3.60;;
29196;SDS011;62796;42.654;23.316;2023-04-30T14:24:24;5.88;;;3.33;;
29196;SDS011;62796;42.654;23.316;2023-04-30T14:26:50;7.45;;;3.40;;
29196;SDS011;62796;42.654;23.316;2023-04-30T14:29:15;9.40;;;3.90;;
29196;SDS011;62796;42.654;23.316;2023-04-30T14:31:42;7.82;;;4.53;;
29196;SDS011;62796;42.654;23.316;2023-04-30T14:34:07;7.45;;;3.55;;
29196;SDS011;62796;42.654;23.316;2023-04-30T14:36:33;8.60;;;3.67;;
29196;SDS011;62796;42.654;23.316;2023-04-30T14:39:00;9.90;;;3.67;;
29196;SDS011;62796;42.654;23.316;2023-04-30T14:41:27;11.73;;;4.18;;
29196;SDS011;62796;42.654;23.316;2023-04-30T14:43:53;4.05;;;3.10;;
29196;SDS011;62796;42.654;23.316;2023-04-30T14:46:18;6.13;;;3.30;;
29196;SDS011;62796;42.654;23.316;2023-04-30T14:48:44;5.07;;;2.88;;
29196;SDS011;62796;42.654;23.316;2023-04-30T14:51:09;4.78;;;3.38;;
29196;SDS011;62796;42.654;23.316;2023-04-30T14:53:35;4.38;;;3.42;;
29196;SDS011;62796;42.654;23.316;2023-04-30T14:56:01;8.25;;;3.40;;